createdAt,value
2023-05-05T00:01:27.098Z,7.63
2023-05-05T00:03:53.912Z,7.72
2023-05-05T00:06:20.741Z,7.61
2023-05-05T00:08:47.677Z,7.62
2023-05-05T00:11:14.524Z,7.57
2023-05-05T00:13:41.396Z,7.70
2023-05-05T00:16:08.268Z,7.64
2023-05-05T00:18:35.259Z,7.73
2023-05-05T00:21:02.413Z,7.90
2023-05-05T00:23:29.171Z,7.71
2023-05-05T00:25:56.043Z,7.76
2023-05-05T00:28:22.968Z,7.93
2023-05-05T00:30:49.807Z,7.70
2023-05-05T00:33:16.861Z,7.95
2023-05-05T00:35:43.689Z,7.91
2023-05-05T00:38:10.424Z,8.02
2023-05-05T00:40:38.283Z,7.73
2023-05-05T00:43:05.344Z,8.07
2023-05-05T00:45:32.197Z,8.19
2023-05-05T00:48:00.520Z,8.30
2023-05-05T00:50:29.564Z,8.30
2023-05-05T00:53:03.306Z,8.28
2023-05-05T00:55:31.003Z,8.31
2023-05-05T00:58:02.722Z,8.35
2023-05-05T01:00:30.171Z,8.39
2023-05-05T01:02:57.268Z,8.27
2023-05-05T01:05:25.902Z,8.03
2023-05-05T01:08:19.534Z,8.17
2023-05-05T01:10:53.183Z,8.24
2023-05-05T01:14:04.274Z,7.99
2023-05-05T01:16:34.143Z,7.55
2023-05-05T01:19:26.872Z,7.45
2023-05-05T01:21:57.249Z,7.62
2023-05-05T01:24:44.124Z,7.78
2023-05-05T01:27:35.069Z,7.68
2023-05-05T01:30:19.879Z,7.84
2023-05-05T01:32:57.961Z,7.82
2023-05-05T01:35:31.920Z,7.72
2023-05-05T01:38:37.968Z,7.79
2023-05-05T01:41:12.053Z,7.88
2023-05-05T01:43:41.318Z,7.75
2023-05-05T01:46:08.958Z,7.88
2023-05-05T01:48:37.138Z,7.85
2023-05-05T01:51:05.550Z,7.64
2023-05-05T01:53:34.324Z,7.25
2023-05-05T01:56:02.766Z,7.40
2023-05-05T01:58:31.069Z,7.42
2023-05-05T02:00:59.068Z,7.37
2023-05-05T02:03:27.696Z,7.07
2023-05-05T02:05:55.959Z,7.24
2023-05-05T02:08:26.155Z,7.48
2023-05-05T02:10:55.730Z,7.38
2023-05-05T02:13:24.641Z,7.26
2023-05-05T02:15:52.198Z,6.98
2023-05-05T02:18:20.113Z,6.98
2023-05-05T02:20:47.463Z,6.99
2023-05-05T02:23:14.211Z,6.87
2023-05-05T02:25:44.293Z,7.11
2023-05-05T02:28:19.153Z,6.99
2023-05-05T02:30:54.797Z,7.14
2023-05-05T02:33:23.732Z,7.22
2023-05-05T02:35:53.501Z,6.88
2023-05-05T02:38:26.404Z,6.81
2023-05-05T02:40:58.059Z,6.77
2023-05-05T02:43:26.028Z,6.91
2023-05-05T02:45:52.760Z,6.93
2023-05-05T02:48:19.405Z,6.89
2023-05-05T02:50:46.507Z,6.86
2023-05-05T02:53:14.494Z,6.95
2023-05-05T02:55:51.841Z,6.85
2023-05-05T02:58:27.367Z,6.78
2023-05-05T03:01:38.474Z,6.74
2023-05-05T03:04:17.606Z,6.92
2023-05-05T03:06:48.973Z,6.88
2023-05-05T03:09:30.213Z,6.94
2023-05-05T03:12:03.998Z,6.54
2023-05-05T03:14:37.167Z,6.95
2023-05-05T03:17:06.248Z,6.97
2023-05-05T03:19:35.262Z,6.96
2023-05-05T03:22:03.985Z,6.97
2023-05-05T03:24:30.821Z,7.06
2023-05-05T03:26:57.766Z,6.92
2023-05-05T03:29:25.477Z,7.02
2023-05-05T03:31:52.368Z,7.06
2023-05-05T03:34:26.902Z,7.00
2023-05-05T03:36:53.573Z,7.02
2023-05-05T03:39:20.358Z,6.87
2023-05-05T03:41:47.149Z,6.85
2023-05-05T03:44:13.834Z,6.75
2023-05-05T03:46:40.580Z,6.50
2023-05-05T03:49:08.234Z,6.63
2023-05-05T03:51:34.967Z,6.55
2023-05-05T03:54:01.684Z,6.47
2023-05-05T03:56:28.509Z,6.55
2023-05-05T03:58:55.192Z,6.54
2023-05-05T04:01:22.179Z,6.23
2023-05-05T04:03:49.108Z,6.43
2023-05-05T04:06:15.850Z,6.55
2023-05-05T04:08:42.501Z,6.73
2023-05-05T04:11:09.178Z,6.95
2023-05-05T04:13:35.929Z,6.92
2023-05-05T04:16:02.687Z,6.99
2023-05-05T04:18:29.463Z,7.21
2023-05-05T04:20:56.108Z,7.30
2023-05-05T04:23:22.836Z,7.30
2023-05-05T04:25:49.660Z,7.14
2023-05-05T04:28:16.477Z,7.17
2023-05-05T04:30:43.697Z,7.29
2023-05-05T04:33:10.480Z,7.40
2023-05-05T04:35:37.137Z,7.30
2023-05-05T04:38:03.867Z,7.50
2023-05-05T04:40:30.598Z,7.62
2023-05-05T04:42:57.314Z,7.70
2023-05-05T04:45:23.959Z,7.65
2023-05-05T04:47:50.937Z,7.53
2023-05-05T04:50:17.764Z,7.74
2023-05-05T04:52:44.483Z,7.76
2023-05-05T04:55:11.758Z,7.73
2023-05-05T04:57:38.504Z,7.46
2023-05-05T05:00:06.662Z,7.72
2023-05-05T05:02:33.729Z,7.78
2023-05-05T05:05:00.461Z,7.42
2023-05-05T05:07:27.146Z,7.62
2023-05-05T05:09:54.358Z,7.68
2023-05-05T05:12:21.190Z,7.83
2023-05-05T05:14:47.916Z,8.04
2023-05-05T05:17:14.675Z,7.86
2023-05-05T05:19:41.412Z,7.80
2023-05-05T05:22:08.113Z,7.89
2023-05-05T05:24:34.984Z,8.02
2023-05-05T05:27:01.749Z,8.26
2023-05-05T05:29:28.416Z,8.42
2023-05-05T05:31:55.232Z,8.47
2023-05-05T05:34:21.953Z,8.70
2023-05-05T05:36:48.636Z,8.37
2023-05-05T05:39:15.392Z,8.33
2023-05-05T05:41:42.145Z,8.12
2023-05-05T05:44:08.829Z,8.31
2023-05-05T05:46:35.736Z,8.70
2023-05-05T05:49:02.465Z,8.56
2023-05-05T05:51:29.240Z,8.85
2023-05-05T05:53:58.702Z,8.79
2023-05-05T05:56:25.649Z,8.93
2023-05-05T05:58:52.520Z,8.94
2023-05-05T06:01:19.555Z,8.98
2023-05-05T06:03:46.294Z,9.10
2023-05-05T06:06:13.155Z,9.17
2023-05-05T06:08:39.820Z,9.43
2023-05-05T06:11:08.756Z,9.37
2023-05-05T06:13:35.447Z,9.45
2023-05-05T06:16:02.289Z,9.79
2023-05-05T06:18:29.052Z,9.79
2023-05-05T06:20:55.706Z,9.81
2023-05-05T06:23:22.628Z,10.01
2023-05-05T06:25:49.957Z,10.22
2023-05-05T06:28:16.684Z,11.09
2023-05-05T06:30:43.437Z,12.64
2023-05-05T06:33:10.156Z,14.13
2023-05-05T06:35:37.073Z,15.19
2023-05-05T06:38:04.012Z,16.73
2023-05-05T06:40:33.397Z,17.83
2023-05-05T06:43:00.066Z,19.26
2023-05-05T06:45:27.873Z,20.38
2023-05-05T06:47:54.690Z,18.16
2023-05-05T06:50:21.496Z,18.27
2023-05-05T06:52:48.304Z,16.49
2023-05-05T06:55:15.076Z,16.00
2023-05-05T06:57:42.212Z,15.02
2023-05-05T07:00:11.570Z,15.00
2023-05-05T07:02:38.965Z,14.71
2023-05-05T07:05:06.097Z,14.07
2023-05-05T07:07:32.937Z,13.31
2023-05-05T07:09:59.707Z,13.18
2023-05-05T07:12:29.215Z,12.96
2023-05-05T07:14:56.367Z,12.63
2023-05-05T07:17:23.157Z,12.25
2023-05-05T07:19:51.342Z,12.17
2023-05-05T07:22:18.096Z,12.40
2023-05-05T07:24:44.805Z,12.80
2023-05-05T07:27:11.532Z,12.75
2023-05-05T07:29:38.212Z,12.38
2023-05-05T07:32:05.445Z,11.82
2023-05-05T07:34:34.543Z,12.16
2023-05-05T07:37:01.705Z,12.35
2023-05-05T07:39:28.438Z,12.03
2023-05-05T07:41:55.119Z,11.99
2023-05-05T07:44:21.817Z,12.19
2023-05-05T07:46:48.562Z,11.90
2023-05-05T07:49:15.651Z,11.69
2023-05-05T07:51:42.575Z,11.95
2023-05-05T07:54:09.439Z,12.02
2023-05-05T07:56:36.106Z,11.89
2023-05-05T07:59:02.788Z,12.01
2023-05-05T08:01:29.520Z,12.19
2023-05-05T08:03:56.185Z,12.25
2023-05-05T08:06:24.997Z,12.29
2023-05-05T08:08:53.384Z,12.32
2023-05-05T08:11:20.854Z,12.43
2023-05-05T08:13:47.706Z,12.62
2023-05-05T08:16:15.230Z,12.88
2023-05-05T08:18:41.988Z,13.01
2023-05-05T08:21:10.459Z,12.92
2023-05-05T08:23:38.237Z,13.00
2023-05-05T08:26:06.970Z,12.96
2023-05-05T08:28:36.511Z,12.76
2023-05-05T08:31:06.994Z,12.83
2023-05-05T08:33:33.804Z,12.54
2023-05-05T08:36:01.409Z,12.35
2023-05-05T08:38:28.182Z,12.12
2023-05-05T08:40:55.152Z,12.17
2023-05-05T08:43:23.926Z,12.02
2023-05-05T08:45:52.041Z,12.21
2023-05-05T08:48:22.621Z,12.08
2023-05-05T08:50:56.649Z,12.12
2023-05-05T08:53:39.134Z,11.98
2023-05-05T08:56:06.955Z,12.05
2023-05-05T08:58:37.096Z,12.17
2023-05-05T09:01:05.458Z,12.24
2023-05-05T09:03:32.611Z,12.31
2023-05-05T09:05:59.433Z,12.43
2023-05-05T09:08:27.049Z,12.39
2023-05-05T09:10:55.136Z,12.43
2023-05-05T09:13:21.981Z,12.48
2023-05-05T09:15:48.692Z,12.94
2023-05-05T09:18:15.417Z,13.18
2023-05-05T09:20:42.183Z,13.02
2023-05-05T09:23:16.908Z,13.24
2023-05-05T09:25:48.620Z,13.30
2023-05-05T09:28:17.001Z,13.21
2023-05-05T09:30:46.356Z,12.95
2023-05-05T09:33:14.047Z,12.65
2023-05-05T09:35:55.098Z,12.57
2023-05-05T09:38:24.000Z,12.25
2023-05-05T09:40:54.130Z,12.36
2023-05-05T09:43:23.291Z,12.25
2023-05-05T09:45:51.177Z,12.31
2023-05-05T09:48:31.565Z,12.60
2023-05-05T09:50:59.481Z,12.69
2023-05-05T09:53:26.795Z,12.79
2023-05-05T09:55:54.097Z,12.94
2023-05-05T09:58:24.963Z,12.90
2023-05-05T10:00:52.305Z,12.81
2023-05-05T10:03:19.642Z,12.52
2023-05-05T10:05:50.735Z,12.47
2023-05-05T10:08:19.935Z,12.31
2023-05-05T10:10:52.921Z,12.27
2023-05-05T10:13:21.977Z,12.33
2023-05-05T10:15:51.500Z,12.33
2023-05-05T10:18:23.784Z,12.40
2023-05-05T10:20:58.205Z,12.48
2023-05-05T10:23:34.363Z,12.38
2023-05-05T10:26:05.642Z,12.46
2023-05-05T10:28:50.551Z,12.20
2023-05-05T10:31:26.370Z,12.62
2023-05-05T10:34:06.074Z,12.69
2023-05-05T10:36:33.613Z,12.86
2023-05-05T10:39:00.615Z,12.92
2023-05-05T10:41:28.687Z,12.97
2023-05-05T10:43:57.438Z,13.03
2023-05-05T10:46:26.862Z,13.19
2023-05-05T10:49:31.592Z,13.41
2023-05-05T10:52:12.516Z,13.39
2023-05-05T10:54:47.353Z,13.41
2023-05-05T10:57:16.894Z,13.41
